Terminal Aerodrome Forecast
Issued by NWS Sioux Falls, SD

Home | Current Version | Previous Version | Graphics & Text | Print | Product List | Glossary On
Versions: 1 2 3 4 5 6 7 8 9 10 11 12 13 14 15 16 17 18 19 20
000
FTUS43 KFSD 260824 AAA
TAFHON
TAF AMD
KHON 260824Z 2608/2706 35012G18KT P6SM OVC008
     FM261000 35020G28KT 4SM -SN OVC009
      TEMPO 2610/2614 1SM -SN BLSN
     FM261400 34022G30KT P6SM BKN020
     FM261700 34020G28KT P6SM BKN025
     FM262300 35013G20KT P6SM BKN025
     FM270200 36006KT P6SM BKN025=

USA.gov is the U.S. government's official web portal to all federal, state and local government web resources and services.